Time;durP1;ratioP1;P1;durP2;ratioP2;P2;SDS_P1;SDS_P2;PMS_P1;PMS_P2;Temp;Humidity;BMP_temperature;BMP_pressure;BME280_temperature;BME280_humidity;BME280_pressure;Samples;Min_cycle;Max_cycle;Signal;HPM_P1;HPM_P2
2023/07/30 00:01:33;;;;;;;1.70;1.60;;;17.80;99.90;;;;;;5014123;28;20439;-84
2023/07/30 00:04:00;;;;;;;1.77;1.23;;;17.80;99.90;;;;;;5014286;28;20467;-85
2023/07/30 00:06:27;;;;;;;1.80;1.70;;;17.80;99.90;;;;;;5014241;28;20451;-84
2023/07/30 00:08:53;;;;;;;1.83;1.53;;;17.80;99.90;;;;;;5013602;28;20439;-84
2023/07/30 00:11:21;;;;;;;2.70;1.43;;;17.80;99.90;;;;;;5013922;28;20827;-84
2023/07/30 00:13:48;;;;;;;4.20;1.63;;;17.80;99.90;;;;;;5013746;28;20973;-84
2023/07/30 00:16:15;;;;;;;6.90;1.27;;;17.80;99.90;;;;;;5013799;28;20475;-84
2023/07/30 00:18:42;;;;;;;4.03;1.30;;;17.80;99.90;;;;;;5013816;28;20512;-84
2023/07/30 00:21:09;;;;;;;2.33;1.50;;;17.70;99.90;;;;;;5014030;28;20443;-84
2023/07/30 00:23:35;;;;;;;1.63;1.50;;;17.70;99.90;;;;;;5013654;28;21037;-84
2023/07/30 00:26:02;;;;;;;1.67;1.47;;;17.70;99.90;;;;;;5016975;28;20451;-85
2023/07/30 00:28:30;;;;;;;2.33;1.70;;;17.70;99.90;;;;;;5013638;28;20956;-82
2023/07/30 00:30:57;;;;;;;2.30;1.43;;;17.70;99.90;;;;;;5013647;28;20472;-82
2023/07/30 00:33:24;;;;;;;2.10;1.53;;;17.70;99.90;;;;;;5013643;28;20475;-82
2023/07/30 00:35:52;;;;;;;1.40;0.90;;;17.60;99.90;;;;;;5013761;28;20522;-82
2023/07/30 00:38:19;;;;;;;1.60;1.50;;;17.60;99.90;;;;;;5013522;28;21031;-82
2023/07/30 00:40:46;;;;;;;2.53;1.90;;;17.60;99.90;;;;;;5013729;28;20451;-81
2023/07/30 00:43:13;;;;;;;3.03;1.87;;;17.60;99.90;;;;;;5013315;28;21015;-81
2023/07/30 00:45:43;;;;;;;2.10;2.00;;;17.60;99.90;;;;;;5013770;28;20471;-81
2023/07/30 00:48:11;;;;;;;1.10;1.00;;;17.50;99.90;;;;;;5013680;28;20435;-81
2023/07/30 00:50:38;;;;;;;3.43;1.20;;;17.50;99.90;;;;;;5013699;28;20452;-85
2023/07/30 00:53:05;;;;;;;1.87;1.30;;;17.50;99.90;;;;;;5013967;28;20805;-85
2023/07/30 00:55:32;;;;;;;2.53;1.30;;;17.50;99.90;;;;;;5013289;28;20479;-84
2023/07/30 00:57:59;;;;;;;1.87;1.70;;;17.40;99.90;;;;;;5013986;28;20462;-85
2023/07/30 01:00:26;;;;;;;8.50;1.33;;;17.40;99.90;;;;;;5013300;28;20525;-85
2023/07/30 01:02:55;;;;;;;1.63;1.50;;;17.40;99.90;;;;;;5013522;28;20448;-85
2023/07/30 01:05:22;;;;;;;2.23;0.93;;;17.40;99.90;;;;;;5013464;28;20455;-85
2023/07/30 01:07:49;;;;;;;1.63;1.00;;;17.30;99.90;;;;;;5013524;28;20448;-85
2023/07/30 01:10:16;;;;;;;1.40;1.20;;;17.30;99.90;;;;;;5013483;28;20462;-85
2023/07/30 01:12:44;;;;;;;1.10;1.00;;;17.30;99.90;;;;;;5013439;28;20456;-82
2023/07/30 01:15:12;;;;;;;1.23;1.13;;;17.40;99.90;;;;;;5013410;28;20802;-81
2023/07/30 01:17:39;;;;;;;2.47;1.67;;;17.30;99.90;;;;;;5013246;28;20490;-82
2023/07/30 01:20:08;;;;;;;1.63;1.20;;;17.40;99.90;;;;;;5013377;28;20443;-82
2023/07/30 01:22:37;;;;;;;2.07;1.03;;;17.40;99.90;;;;;;5016128;28;20447;-81
2023/07/30 01:25:04;;;;;;;2.70;0.93;;;17.40;99.90;;;;;;5017444;28;20463;-81
2023/07/30 01:27:37;;;;;;;1.47;1.00;;;17.30;99.90;;;;;;5017215;28;20443;-82
2023/07/30 01:30:08;;;;;;;0.87;0.87;;;17.20;99.90;;;;;;5016908;28;20431;-82
2023/07/30 01:32:36;;;;;;;1.07;0.93;;;17.20;99.90;;;;;;5017189;28;20436;-81
2023/07/30 01:35:04;;;;;;;1.67;1.03;;;17.20;99.90;;;;;;5016692;28;20992;-81
2023/07/30 01:37:32;;;;;;;1.67;1.13;;;17.10;99.90;;;;;;5016911;28;20494;-81
2023/07/30 01:40:01;;;;;;;2.83;1.13;;;17.20;99.90;;;;;;5016934;28;20451;-82
2023/07/30 01:42:30;;;;;;;1.50;1.10;;;17.10;99.90;;;;;;5016933;28;20446;-81
2023/07/30 01:44:57;;;;;;;1.67;1.30;;;17.10;99.90;;;;;;5016849;28;20467;-82
2023/07/30 01:47:24;;;;;;;1.10;0.93;;;17.10;99.90;;;;;;5016584;28;20435;-81
2023/07/30 01:49:50;;;;;;;1.70;1.03;;;17.10;99.90;;;;;;5016494;28;20443;-82
2023/07/30 01:52:17;;;;;;;3.87;1.10;;;17.10;99.90;;;;;;5016427;28;20970;-82
2023/07/30 01:54:44;;;;;;;1.63;1.17;;;17.00;99.90;;;;;;5016915;28;20471;-82
2023/07/30 01:57:12;;;;;;;0.70;0.70;;;17.00;99.90;;;;;;5016581;28;20549;-81
2023/07/30 01:59:39;;;;;;;1.43;1.33;;;17.00;99.90;;;;;;5016598;28;20443;-82
2023/07/30 02:02:06;;;;;;;1.07;0.97;;;17.00;99.90;;;;;;5016564;28;20501;-82
2023/07/30 02:04:33;;;;;;;1.70;0.87;;;16.90;99.90;;;;;;5016651;28;20477;-82
2023/07/30 02:07:00;;;;;;;1.40;0.60;;;16.90;99.90;;;;;;5016150;28;20451;-81
2023/07/30 02:09:27;;;;;;;1.07;0.80;;;16.80;99.90;;;;;;5016521;28;20456;-82
2023/07/30 02:11:54;;;;;;;3.53;0.90;;;16.90;99.90;;;;;;5016363;28;20448;-81
2023/07/30 02:14:22;;;;;;;1.23;0.60;;;17.00;99.90;;;;;;5016278;28;20474;-81
2023/07/30 02:16:48;;;;;;;0.80;0.60;;;16.90;99.90;;;;;;5016214;28;20485;-82
2023/07/30 02:19:15;;;;;;;0.70;0.70;;;17.00;99.90;;;;;;5016247;28;20459;-81
2023/07/30 02:21:42;;;;;;;0.60;0.60;;;16.90;99.90;;;;;;5016197;28;20443;-82
2023/07/30 02:24:11;;;;;;;1.10;0.50;;;16.90;99.90;;;;;;5016064;28;20482;-82
2023/07/30 02:26:38;;;;;;;0.97;0.87;;;16.80;99.90;;;;;;5016357;28;20463;-82
2023/07/30 02:29:05;;;;;;;1.33;1.00;;;16.80;99.90;;;;;;5015825;28;20432;-82
2023/07/30 02:31:33;;;;;;;0.80;0.80;;;16.80;99.90;;;;;;5016021;28;20451;-82
2023/07/30 02:34:00;;;;;;;1.93;0.77;;;16.80;99.90;;;;;;5015352;28;20484;-81
2023/07/30 02:36:27;;;;;;;0.70;0.60;;;16.80;99.90;;;;;;5016214;28;20839;-82
2023/07/30 02:38:53;;;;;;;0.70;0.70;;;16.80;99.90;;;;;;5015848;28;20455;-81
2023/07/30 02:41:20;;;;;;;0.97;0.90;;;16.80;99.90;;;;;;5016062;28;20447;-82
2023/07/30 02:43:47;;;;;;;1.00;0.90;;;16.80;99.90;;;;;;5015736;28;20475;-81
2023/07/30 02:46:13;;;;;;;1.43;0.70;;;16.90;99.90;;;;;;5016319;28;20439;-82
2023/07/30 02:48:42;;;;;;;0.87;0.87;;;16.90;99.90;;;;;;5015673;28;20456;-81
2023/07/30 02:51:08;;;;;;;2.10;1.13;;;16.80;99.90;;;;;;5015677;28;20457;-81
2023/07/30 02:53:35;;;;;;;0.70;0.63;;;16.80;99.90;;;;;;5015395;28;20823;-81
2023/07/30 02:56:02;;;;;;;1.10;0.90;;;16.80;99.90;;;;;;5015509;28;20490;-81
2023/07/30 02:58:28;;;;;;;0.80;0.70;;;16.80;99.90;;;;;;5015212;28;20826;-82
2023/07/30 03:00:55;;;;;;;0.80;0.80;;;16.70;99.90;;;;;;5015149;28;20458;-81
2023/07/30 03:03:22;;;;;;;2.53;0.90;;;16.70;99.90;;;;;;5015372;28;20459;-82
2023/07/30 03:05:50;;;;;;;2.27;0.80;;;16.70;99.90;;;;;;5015159;28;20533;-81
2023/07/30 03:08:17;;;;;;;1.43;1.03;;;16.70;99.90;;;;;;5015091;28;20798;-81
2023/07/30 03:10:43;;;;;;;1.33;1.00;;;16.60;99.90;;;;;;5015278;28;20451;-81
2023/07/30 03:13:10;;;;;;;2.47;0.90;;;16.70;99.90;;;;;;5015160;28;20474;-82
2023/07/30 03:15:37;;;;;;;0.80;0.80;;;16.70;99.90;;;;;;5014920;28;20452;-82
2023/07/30 03:18:03;;;;;;;1.70;1.00;;;16.70;99.90;;;;;;5015035;28;20491;-81
2023/07/30 03:20:30;;;;;;;0.97;0.90;;;16.70;99.90;;;;;;5015127;28;20451;-82
2023/07/30 03:22:58;;;;;;;1.10;0.90;;;16.70;99.90;;;;;;5014928;28;20446;-82
2023/07/30 03:25:25;;;;;;;1.43;1.33;;;16.70;99.90;;;;;;5014731;28;20455;-81
2023/07/30 03:27:52;;;;;;;1.43;0.80;;;16.80;99.90;;;;;;5014969;28;20447;-81
2023/07/30 03:30:18;;;;;;;8.50;0.80;;;16.70;99.90;;;;;;5014950;28;20452;-81
2023/07/30 03:32:45;;;;;;;1.50;0.97;;;16.70;99.90;;;;;;5014732;28;20455;-82
2023/07/30 03:35:12;;;;;;;1.13;0.80;;;16.70;99.90;;;;;;5014385;28;20493;-82
2023/07/30 03:37:39;;;;;;;1.20;1.10;;;16.70;99.90;;;;;;5014759;28;20483;-82
2023/07/30 03:40:08;;;;;;;1.13;0.80;;;16.70;99.90;;;;;;5014718;28;20459;-81
2023/07/30 03:42:35;;;;;;;3.87;0.83;;;16.80;99.90;;;;;;5014691;28;20452;-81
2023/07/30 03:45:02;;;;;;;1.50;1.10;;;16.80;99.90;;;;;;5013888;28;20472;-82
2023/07/30 03:47:28;;;;;;;0.93;0.63;;;16.90;99.90;;;;;;5014349;28;20963;-82
2023/07/30 03:49:55;;;;;;;4.33;1.10;;;16.80;99.90;;;;;;5014569;28;20458;-82
2023/07/30 03:52:22;;;;;;;1.10;1.10;;;16.90;99.90;;;;;;5014303;28;20428;-81
2023/07/30 03:54:49;;;;;;;0.93;0.87;;;16.90;99.90;;;;;;5014412;28;20478;-82
2023/07/30 03:57:17;;;;;;;0.77;0.77;;;16.90;99.90;;;;;;5014364;28;20565;-82
2023/07/30 03:59:43;;;;;;;2.20;0.70;;;16.90;99.90;;;;;;5014397;28;20455;-81
2023/07/30 04:02:15;;;;;;;1.10;0.80;;;16.90;99.90;;;;;;5014062;28;20447;-82
2023/07/30 04:04:42;;;;;;;1.57;1.30;;;16.90;99.90;;;;;;5013904;28;21000;-81
2023/07/30 04:07:08;;;;;;;0.97;0.70;;;16.90;99.90;;;;;;5014060;28;20436;-82
2023/07/30 04:09:35;;;;;;;1.20;1.10;;;16.80;99.90;;;;;;5013901;28;20826;-81
2023/07/30 04:12:02;;;;;;;0.90;0.80;;;16.80;99.90;;;;;;5014436;28;20460;-81
2023/07/30 04:14:30;;;;;;;1.87;0.67;;;16.80;99.90;;;;;;5014066;28;20463;-82
2023/07/30 04:16:57;;;;;;;1.50;1.10;;;16.80;99.90;;;;;;5014043;28;20480;-82
2023/07/30 04:19:23;;;;;;;1.00;1.00;;;16.80;99.90;;;;;;5014037;28;20451;-82
2023/07/30 04:21:50;;;;;;;0.60;0.60;;;16.80;99.90;;;;;;5013704;28;20455;-82
2023/07/30 04:24:17;;;;;;;2.07;0.80;;;16.70;99.90;;;;;;5013845;28;20479;-82
2023/07/30 04:26:44;;;;;;;1.77;1.03;;;16.80;99.90;;;;;;5014162;28;20455;-82
2023/07/30 04:29:10;;;;;;;0.80;0.80;;;16.80;99.90;;;;;;5013946;28;20440;-82
2023/07/30 04:31:38;;;;;;;3.53;0.97;;;16.80;99.90;;;;;;5013917;28;20447;-82
2023/07/30 04:34:05;;;;;;;1.00;0.70;;;16.80;99.90;;;;;;5013560;28;20483;-82
2023/07/30 04:36:32;;;;;;;2.33;0.90;;;16.80;99.90;;;;;;5013770;28;20457;-82
2023/07/30 04:38:59;;;;;;;0.80;0.80;;;16.80;99.90;;;;;;5013484;28;20454;-81
2023/07/30 04:41:25;;;;;;;0.93;0.93;;;16.90;99.90;;;;;;5013478;28;20936;-82
2023/07/30 04:43:52;;;;;;;1.67;1.10;;;16.90;99.90;;;;;;5013652;28;20472;-82
2023/07/30 04:46:19;;;;;;;0.80;0.80;;;16.80;99.90;;;;;;5013848;28;20468;-82
2023/07/30 04:48:47;;;;;;;0.83;0.83;;;16.80;99.90;;;;;;5013653;28;20448;-82
2023/07/30 04:51:14;;;;;;;2.47;0.60;;;16.80;99.90;;;;;;5013663;28;20456;-82
2023/07/30 04:53:40;;;;;;;1.97;1.50;;;16.90;99.90;;;;;;5013536;28;20475;-82
2023/07/30 04:56:07;;;;;;;3.97;1.20;;;16.80;99.90;;;;;;5013520;28;20811;-82
2023/07/30 04:58:34;;;;;;;1.10;1.00;;;16.90;99.90;;;;;;5013176;28;21090;-82
2023/07/30 05:01:00;;;;;;;0.97;0.70;;;16.90;99.90;;;;;;5013290;28;20440;-82
2023/07/30 05:03:27;;;;;;;0.83;0.70;;;16.90;99.90;;;;;;5013428;28;20479;-82
2023/07/30 05:05:55;;;;;;;1.10;0.70;;;16.90;99.90;;;;;;5013465;28;20470;-82
2023/07/30 05:08:22;;;;;;;1.63;0.60;;;16.90;99.90;;;;;;5013165;28;20444;-82
2023/07/30 05:10:49;;;;;;;1.03;0.67;;;16.90;99.90;;;;;;5013172;28;20964;-82
2023/07/30 05:13:16;;;;;;;2.90;0.80;;;16.90;99.90;;;;;;5013351;28;20472;-82
2023/07/30 05:15:42;;;;;;;0.83;0.70;;;16.90;99.90;;;;;;5013959;28;20443;-83
2023/07/30 05:18:09;;;;;;;3.53;1.03;;;16.90;99.90;;;;;;5013256;28;20573;-81
2023/07/30 05:20:36;;;;;;;1.73;0.80;;;16.90;99.90;;;;;;5013370;28;20444;-81
2023/07/30 05:23:04;;;;;;;0.80;0.80;;;16.90;99.90;;;;;;5012971;28;20458;-80
2023/07/30 05:25:31;;;;;;;1.00;0.90;;;16.90;99.90;;;;;;5013286;28;20463;-80
2023/07/30 05:27:57;;;;;;;0.90;0.70;;;16.90;99.90;;;;;;5013383;28;20455;-79
2023/07/30 05:30:24;;;;;;;1.83;1.00;;;16.90;99.90;;;;;;5012977;28;20800;-80
2023/07/30 05:32:51;;;;;;;1.03;0.80;;;16.90;99.90;;;;;;5013192;28;20478;-81
2023/07/30 05:35:18;;;;;;;1.07;0.80;;;16.90;99.90;;;;;;5013105;28;20478;-81
2023/07/30 05:37:45;;;;;;;2.07;1.00;;;16.90;99.90;;;;;;5013158;28;20582;-82
2023/07/30 05:40:13;;;;;;;1.27;0.57;;;16.90;99.90;;;;;;5013179;28;20535;-83
2023/07/30 05:42:40;;;;;;;0.80;0.80;;;16.90;99.90;;;;;;5012861;28;20967;-83
2023/07/30 05:45:08;;;;;;;1.57;1.10;;;16.90;99.90;;;;;;5012859;28;20816;-83
2023/07/30 05:47:35;;;;;;;0.93;0.77;;;16.90;99.90;;;;;;5012906;28;20440;-83
2023/07/30 05:50:03;;;;;;;1.00;0.60;;;16.90;99.90;;;;;;5013345;28;20474;-84
2023/07/30 05:52:30;;;;;;;0.80;0.60;;;16.90;99.90;;;;;;5013336;28;20893;-84
2023/07/30 05:54:57;;;;;;;0.63;0.60;;;17.00;99.90;;;;;;5013256;28;20474;-84
2023/07/30 05:57:25;;;;;;;1.37;0.90;;;17.00;99.90;;;;;;5012985;28;20479;-84
2023/07/30 05:59:52;;;;;;;0.50;0.50;;;17.00;99.90;;;;;;5013127;28;20432;-84
2023/07/30 06:02:19;;;;;;;0.80;0.80;;;17.00;99.90;;;;;;5013057;28;20444;-84
2023/07/30 06:04:46;;;;;;;0.60;0.50;;;16.90;99.90;;;;;;5012907;28;20559;-84
2023/07/30 06:07:12;;;;;;;1.10;0.70;;;16.90;99.90;;;;;;5013072;28;20837;-84
2023/07/30 06:09:39;;;;;;;0.70;0.70;;;17.00;99.90;;;;;;5016220;28;20438;-85
2023/07/30 06:12:06;;;;;;;1.03;0.80;;;17.00;99.90;;;;;;5016174;28;20443;-84
2023/07/30 06:14:34;;;;;;;0.90;0.40;;;17.00;99.90;;;;;;5016333;28;20470;-84
2023/07/30 06:17:01;;;;;;;1.23;0.70;;;17.10;99.90;;;;;;5015916;28;20979;-84
2023/07/30 06:19:28;;;;;;;5.93;0.77;;;17.10;99.90;;;;;;5016267;28;20455;-84
2023/07/30 06:21:55;;;;;;;1.03;0.60;;;17.10;99.90;;;;;;5016341;28;20455;-84
2023/07/30 06:24:22;;;;;;;0.60;0.60;;;17.10;99.90;;;;;;5015851;28;20996;-84
2023/07/30 06:26:49;;;;;;;0.77;0.60;;;17.10;99.90;;;;;;5016148;28;20443;-84
2023/07/30 06:29:15;;;;;;;2.57;0.60;;;17.20;99.90;;;;;;5016282;28;20452;-84
2023/07/30 06:31:44;;;;;;;0.67;0.67;;;17.20;99.90;;;;;;5015807;28;20443;-84
2023/07/30 06:34:10;;;;;;;1.37;0.70;;;17.30;99.90;;;;;;5015945;28;20487;-83
2023/07/30 06:36:37;;;;;;;1.17;1.00;;;17.40;99.90;;;;;;5015751;28;20459;-84
2023/07/30 06:39:04;;;;;;;0.60;0.50;;;17.60;99.90;;;;;;5015876;28;20494;-83
2023/07/30 06:41:31;;;;;;;0.83;0.60;;;17.80;99.90;;;;;;5015928;28;20451;-84
2023/07/30 06:43:57;;;;;;;1.30;1.17;;;18.00;99.90;;;;;;5015493;28;20983;-84
2023/07/30 06:46:24;;;;;;;0.87;0.70;;;18.20;99.90;;;;;;5016036;28;20451;-83
2023/07/30 06:48:52;;;;;;;0.80;0.70;;;18.40;99.90;;;;;;5015760;28;20450;-84
2023/07/30 06:51:20;;;;;;;0.70;0.63;;;18.40;99.90;;;;;;5015430;28;20859;-83
2023/07/30 06:53:47;;;;;;;2.40;0.80;;;18.40;99.90;;;;;;5015861;28;20468;-83
2023/07/30 06:56:14;;;;;;;0.50;0.50;;;18.30;99.90;;;;;;5015574;28;20454;-83
2023/07/30 06:58:41;;;;;;;0.70;0.40;;;18.20;99.90;;;;;;5015490;28;20483;-83
2023/07/30 07:01:07;;;;;;;0.50;0.50;;;18.10;99.90;;;;;;5015206;28;20971;-83
2023/07/30 07:03:34;;;;;;;1.00;0.50;;;18.00;99.90;;;;;;5015369;28;20478;-84
2023/07/30 07:06:02;;;;;;;1.07;0.90;;;18.10;99.90;;;;;;5015690;28;20467;-83
2023/07/30 07:08:29;;;;;;;0.50;0.50;;;18.10;99.90;;;;;;5015404;28;20431;-82
2023/07/30 07:10:56;;;;;;;0.70;0.43;;;18.10;99.90;;;;;;5015367;28;20432;-83
2023/07/30 07:13:22;;;;;;;0.70;0.60;;;18.10;99.90;;;;;;5015012;28;20455;-80
2023/07/30 07:15:49;;;;;;;1.50;0.60;;;18.10;99.90;;;;;;5015250;28;20458;-78
2023/07/30 07:18:16;;;;;;;1.60;0.60;;;18.00;99.90;;;;;;5014712;28;20491;-79
2023/07/30 07:20:43;;;;;;;0.60;0.60;;;17.90;99.90;;;;;;5014390;28;20463;-80
2023/07/30 07:23:11;;;;;;;1.43;1.00;;;17.90;99.90;;;;;;5015042;28;20471;-81
2023/07/30 07:25:38;;;;;;;0.93;0.83;;;17.90;99.90;;;;;;5015006;28;20458;-81
2023/07/30 07:28:05;;;;;;;0.60;0.60;;;17.90;99.90;;;;;;5015173;28;20471;-81
2023/07/30 07:30:32;;;;;;;3.10;0.70;;;17.80;99.90;;;;;;5014729;28;20479;-82
2023/07/30 07:32:58;;;;;;;1.23;0.60;;;17.80;99.90;;;;;;5014553;28;20447;-82
2023/07/30 07:35:25;;;;;;;0.70;0.60;;;17.80;99.90;;;;;;5014654;28;20896;-82
2023/07/30 07:37:52;;;;;;;0.70;0.53;;;17.70;99.90;;;;;;5014729;28;20487;-83
2023/07/30 07:40:20;;;;;;;0.50;0.47;;;17.70;99.90;;;;;;5014780;28;20458;-83
2023/07/30 07:42:47;;;;;;;0.57;0.57;;;17.80;99.90;;;;;;5014703;28;20467;-82
2023/07/30 07:45:13;;;;;;;0.73;0.70;;;17.70;99.90;;;;;;5014678;28;20455;-83
2023/07/30 07:47:40;;;;;;;0.60;0.60;;;17.70;99.90;;;;;;5014652;28;20450;-84
2023/07/30 07:50:08;;;;;;;0.70;0.70;;;17.70;99.90;;;;;;5014256;28;20956;-84
2023/07/30 07:52:34;;;;;;;0.80;0.53;;;17.70;99.90;;;;;;5014297;28;20442;-83
2023/07/30 07:55:02;;;;;;;0.87;0.87;;;17.80;99.90;;;;;;5014474;28;20463;-84
2023/07/30 07:57:30;;;;;;;0.90;0.60;;;17.80;99.90;;;;;;5014421;28;20436;-84
2023/07/30 07:59:57;;;;;;;0.80;0.50;;;17.80;99.90;;;;;;5014198;28;20502;-84
2023/07/30 08:02:24;;;;;;;0.83;0.60;;;17.90;99.90;;;;;;5014387;28;20451;-84
2023/07/30 08:04:51;;;;;;;0.60;0.47;;;17.90;99.90;;;;;;5014218;28;20471;-84
2023/07/30 08:07:18;;;;;;;0.70;0.60;;;17.90;99.90;;;;;;5014031;28;20455;-85
2023/07/30 08:09:44;;;;;;;0.80;0.60;;;18.00;99.90;;;;;;5014321;28;20447;-84
2023/07/30 08:12:12;;;;;;;0.50;0.50;;;18.10;99.90;;;;;;5014275;28;20454;-85
2023/07/30 08:14:40;;;;;;;0.57;0.57;;;18.30;99.90;;;;;;5014188;28;20475;-85
2023/07/30 08:17:07;;;;;;;0.60;0.60;;;18.50;99.90;;;;;;5014532;28;20448;-85
2023/07/30 08:19:34;;;;;;;1.37;0.70;;;18.60;99.90;;;;;;5014231;28;20498;-85
2023/07/30 08:22:00;;;;;;;0.80;0.60;;;18.90;99.90;;;;;;5013801;28;20961;-85
2023/07/30 08:24:27;;;;;;;1.53;0.50;;;19.00;99.90;;;;;;5013851;28;20456;-86
2023/07/30 08:26:54;;;;;;;0.60;0.60;;;19.10;99.90;;;;;;5014025;28;20463;-85
2023/07/30 08:29:21;;;;;;;0.60;0.60;;;19.10;99.90;;;;;;5014071;28;20440;-87
2023/07/30 08:31:49;;;;;;;0.77;0.77;;;19.20;99.90;;;;;;5013702;28;20447;-86
2023/07/30 08:34:15;;;;;;;0.80;0.50;;;19.20;99.90;;;;;;5013738;28;20498;-85
2023/07/30 08:36:42;;;;;;;2.10;0.70;;;19.20;99.90;;;;;;5013856;28;20455;-86
2023/07/30 08:39:09;;;;;;;1.07;0.70;;;19.30;99.90;;;;;;5013664;28;20991;-86
2023/07/30 08:41:36;;;;;;;0.87;0.57;;;19.30;99.90;;;;;;5014347;28;20450;-85
2023/07/30 08:44:03;;;;;;;3.20;0.90;;;19.30;99.90;;;;;;5014125;28;20476;-87
2023/07/30 08:46:29;;;;;;;0.60;0.60;;;19.30;99.90;;;;;;5014173;28;20459;-86
2023/07/30 08:48:58;;;;;;;0.90;0.90;;;19.40;99.90;;;;;;5014117;28;20458;-87
2023/07/30 08:51:26;;;;;;;0.67;0.67;;;19.50;99.90;;;;;;5013787;28;20959;-85
2023/07/30 08:53:53;;;;;;;1.00;0.60;;;19.60;99.90;;;;;;5013918;28;20475;-87
2023/07/30 08:56:20;;;;;;;0.53;0.53;;;19.60;99.90;;;;;;5013959;28;20780;-86
2023/07/30 08:58:49;;;;;;;0.60;0.60;;;19.80;99.90;;;;;;5013850;28;20479;-86
2023/07/30 09:01:18;;;;;;;0.90;0.60;;;19.90;99.90;;;;;;5013928;28;20796;-86
2023/07/30 09:03:45;;;;;;;0.80;0.80;;;20.10;99.90;;;;;;5013763;28;20471;-87
2023/07/30 09:06:14;;;;;;;0.53;0.53;;;20.10;99.90;;;;;;5013920;28;20455;-87
2023/07/30 09:08:40;;;;;;;3.50;0.53;;;20.00;99.90;;;;;;5013795;28;20443;-86
2023/07/30 09:11:08;;;;;;;0.50;0.50;;;20.00;99.90;;;;;;5013962;28;20451;-86
2023/07/30 09:13:38;;;;;;;0.87;0.80;;;19.70;99.90;;;;;;5013787;28;20478;-86
2023/07/30 09:16:11;;;;;;;1.77;0.87;;;19.60;99.90;;;;;;5013497;28;20848;-86
2023/07/30 09:18:41;;;;;;;1.43;0.80;;;19.40;99.90;;;;;;5013349;28;20976;-86
2023/07/30 09:21:08;;;;;;;0.70;0.70;;;19.30;99.90;;;;;;5013715;28;20841;-86
2023/07/30 09:23:42;;;;;;;0.50;0.50;;;19.20;99.90;;;;;;5013198;28;20995;-86
2023/07/30 09:26:09;;;;;;;0.80;0.80;;;19.10;99.90;;;;;;5013418;28;20491;-86
2023/07/30 09:28:35;;;;;;;0.63;0.60;;;19.10;99.90;;;;;;5013592;28;20443;-87
2023/07/30 09:31:03;;;;;;;0.80;0.70;;;19.00;99.90;;;;;;5013610;28;20465;-87
2023/07/30 09:33:30;;;;;;;0.60;0.60;;;18.90;99.90;;;;;;5013758;28;20479;-88
2023/07/30 09:35:57;;;;;;;1.37;0.90;;;18.80;99.90;;;;;;5014092;28;20887;-88
2023/07/30 09:38:25;;;;;;;1.10;1.00;;;18.60;99.90;;;;;;5013936;28;20844;-88
2023/07/30 09:40:53;;;;;;;8.13;0.90;;;18.70;99.90;;;;;;5014256;28;20435;-89
2023/07/30 09:43:20;;;;;;;1.00;0.90;;;18.50;99.90;;;;;;5016687;28;20534;-88
2023/07/30 09:45:48;;;;;;;0.87;0.80;;;18.60;99.90;;;;;;5017623;28;20954;-89
2023/07/30 09:48:16;;;;;;;0.97;0.80;;;18.60;99.90;;;;;;5018208;28;20497;-88
2023/07/30 09:50:44;;;;;;;1.23;1.03;;;18.70;99.90;;;;;;5021312;28;20506;-88
2023/07/30 09:53:12;;;;;;;0.80;0.80;;;18.80;99.90;;;;;;5017583;28;20481;-88
2023/07/30 09:55:39;;;;;;;0.70;0.70;;;19.00;99.90;;;;;;5017674;28;20446;-88
2023/07/30 09:58:10;;;;;;;0.80;0.60;;;19.10;99.90;;;;;;5017566;28;20478;-88
2023/07/30 10:00:37;;;;;;;1.37;0.60;;;19.30;99.90;;;;;;5017638;28;20522;-88
2023/07/30 10:03:06;;;;;;;0.70;0.70;;;19.50;99.90;;;;;;5017605;28;20455;-89
2023/07/30 10:05:36;;;;;;;0.80;0.73;;;19.70;99.90;;;;;;5017006;28;20447;-88
2023/07/30 10:08:07;;;;;;;0.70;0.53;;;20.10;99.90;;;;;;5016771;28;20451;-87
2023/07/30 10:10:35;;;;;;;0.83;0.70;;;20.20;99.90;;;;;;5017073;28;20435;-86
2023/07/30 10:13:05;;;;;;;1.23;1.03;;;20.40;99.90;;;;;;5016682;28;20455;-87
2023/07/30 10:15:38;;;;;;;1.23;0.83;;;20.40;99.90;;;;;;5016504;28;20431;-85
2023/07/30 10:18:05;;;;;;;0.67;0.60;;;20.70;99.90;;;;;;5016534;28;20918;-86
2023/07/30 10:20:32;;;;;;;0.77;0.70;;;20.90;99.90;;;;;;5016084;28;20479;-86
2023/07/30 10:23:01;;;;;;;0.60;0.60;;;20.80;99.90;;;;;;5016290;28;20505;-85
2023/07/30 10:25:30;;;;;;;1.10;1.00;;;20.90;99.90;;;;;;5016058;28;20439;-85
2023/07/30 10:27:58;;;;;;;0.97;0.97;;;20.80;99.90;;;;;;5016413;28;20431;-85
2023/07/30 10:30:31;;;;;;;1.57;0.80;;;20.70;99.90;;;;;;5016105;28;20436;-85
2023/07/30 10:33:02;;;;;;;0.80;0.70;;;20.70;99.90;;;;;;5016023;28;20952;-84
2023/07/30 10:35:40;;;;;;;0.70;0.70;;;20.60;99.90;;;;;;5015642;28;20545;-84
2023/07/30 10:38:17;;;;;;;1.07;0.80;;;20.60;99.90;;;;;;5015717;28;20935;-83
2023/07/30 10:41:03;;;;;;;0.70;0.63;;;20.70;99.90;;;;;;5015745;28;20888;-83
2023/07/30 10:43:31;;;;;;;0.87;0.87;;;20.80;99.90;;;;;;5015820;28;20474;-83
2023/07/30 10:45:57;;;;;;;2.33;0.60;;;20.90;99.90;;;;;;5016045;28;20524;-83
2023/07/30 10:48:33;;;;;;;0.70;0.50;;;21.00;99.90;;;;;;5015793;28;20446;-83
2023/07/30 10:51:03;;;;;;;0.73;0.53;;;21.10;99.90;;;;;;5016031;28;20435;-82
2023/07/30 10:53:30;;;;;;;0.90;0.90;;;21.30;99.90;;;;;;5015450;28;20834;-82
2023/07/30 10:56:01;;;;;;;1.40;0.80;;;21.30;99.90;;;;;;5015376;28;20457;-82
2023/07/30 10:58:28;;;;;;;0.57;0.57;;;21.40;99.90;;;;;;5012630;28;20528;-82
2023/07/30 11:00:55;;;;;;;0.80;0.77;;;21.50;99.90;;;;;;5012877;28;20434;-82
2023/07/30 11:03:25;;;;;;;0.80;0.70;;;21.70;99.90;;;;;;5014344;28;20475;-82
2023/07/30 11:05:54;;;;;;;0.70;0.70;;;21.80;99.90;;;;;;5013997;28;20444;-82
2023/07/30 11:08:33;;;;;;;0.90;0.70;;;21.70;99.90;;;;;;5014593;28;20494;-82
2023/07/30 11:10:59;;;;;;;5.83;0.70;;;21.80;99.90;;;;;;5015476;28;20494;-81
2023/07/30 11:13:26;;;;;;;0.83;0.60;;;22.10;99.90;;;;;;5015201;28;20493;-82
2023/07/30 11:15:53;;;;;;;1.00;0.90;;;22.70;99.90;;;;;;5014945;28;20457;-82
2023/07/30 11:18:20;;;;;;;0.70;0.70;;;22.90;99.90;;;;;;5015271;28;20446;-81
2023/07/30 11:20:47;;;;;;;0.80;0.80;;;23.00;99.90;;;;;;5015074;28;20479;-81
2023/07/30 11:23:23;;;;;;;1.27;0.70;;;22.80;99.90;;;;;;5015023;28;20466;-81
2023/07/30 11:25:50;;;;;;;1.10;0.83;;;22.70;99.90;;;;;;5015366;28;20434;-83
2023/07/30 11:28:30;;;;;;;1.00;0.70;;;22.60;99.90;;;;;;5014991;28;20454;-81
2023/07/30 11:31:00;;;;;;;0.60;0.60;;;22.30;99.90;;;;;;5015178;28;20443;-81
2023/07/30 11:33:27;;;;;;;0.90;0.60;;;22.20;99.90;;;;;;5014361;28;21039;-82
2023/07/30 11:35:54;;;;;;;0.70;0.60;;;22.20;99.90;;;;;;5014934;28;20449;-81
2023/07/30 11:38:23;;;;;;;0.93;0.83;;;22.10;99.90;;;;;;5014866;28;20454;-82
2023/07/30 11:40:51;;;;;;;1.00;0.90;;;22.10;99.90;;;;;;5014734;28;20483;-82
2023/07/30 11:43:18;;;;;;;1.50;1.40;;;22.10;99.90;;;;;;5014668;28;20462;-81
2023/07/30 11:45:45;;;;;;;0.80;0.80;;;22.30;99.90;;;;;;5014694;28;20498;-81
2023/07/30 11:48:12;;;;;;;0.70;0.70;;;22.50;99.90;;;;;;5014345;28;20963;-81
2023/07/30 11:50:47;;;;;;;2.47;1.13;;;22.60;99.90;;;;;;5014641;28;20878;-81
2023/07/30 11:53:14;;;;;;;0.93;0.83;;;22.70;99.90;;;;;;5014500;28;20963;-81
2023/07/30 11:55:44;;;;;;;0.73;0.73;;;22.70;99.90;;;;;;5014469;28;20446;-81
2023/07/30 11:58:12;;;;;;;0.90;0.87;;;22.70;99.90;;;;;;5014245;28;20800;-81
2023/07/30 12:00:40;;;;;;;0.90;0.60;;;22.70;99.90;;;;;;5014303;28;20486;-80
2023/07/30 12:03:11;;;;;;;0.87;0.80;;;22.90;99.90;;;;;;5014291;28;20208;-81
2023/07/30 12:05:39;;;;;;;0.83;0.80;;;23.20;99.90;;;;;;5013687;28;20200;-81
2023/07/30 12:08:13;;;;;;;1.63;0.63;;;23.30;99.90;;;;;;5013955;28;20707;-80
2023/07/30 12:10:45;;;;;;;0.87;0.87;;;23.30;99.90;;;;;;5014573;28;20235;-80
2023/07/30 12:13:13;;;;;;;0.70;0.70;;;23.30;99.90;;;;;;5014147;28;20220;-81
2023/07/30 12:15:40;;;;;;;1.43;0.90;;;23.20;99.90;;;;;;5014177;28;20200;-80
2023/07/30 12:18:06;;;;;;;1.27;1.00;;;22.90;99.90;;;;;;5013832;28;20283;-81
2023/07/30 12:20:33;;;;;;;0.70;0.70;;;22.70;99.90;;;;;;5013750;28;20299;-81
2023/07/30 12:23:00;;;;;;;0.73;0.73;;;22.50;99.90;;;;;;5013995;28;20207;-81
2023/07/30 12:25:27;;;;;;;2.10;0.83;;;22.20;99.90;;;;;;5013781;28;20458;-80
2023/07/30 12:27:55;;;;;;;4.13;1.00;;;22.00;99.90;;;;;;5013676;28;20990;-80
2023/07/30 12:30:21;;;;;;;0.67;0.67;;;21.90;99.90;;;;;;5013960;28;20443;-81
2023/07/30 12:32:48;;;;;;;2.30;0.80;;;21.90;99.90;;;;;;5013681;28;20940;-80
2023/07/30 12:35:15;;;;;;;0.80;0.80;;;21.90;99.90;;;;;;5013439;28;20479;-80
2023/07/30 12:37:42;;;;;;;1.53;1.00;;;22.00;99.90;;;;;;5013841;28;20477;-81
2023/07/30 12:40:10;;;;;;;0.80;0.80;;;22.00;99.90;;;;;;5013483;28;20482;-81
2023/07/30 12:42:36;;;;;;;0.87;0.87;;;21.90;99.90;;;;;;5013805;28;20450;-81
2023/07/30 12:45:05;;;;;;;1.10;1.00;;;21.90;99.90;;;;;;5013730;28;20471;-81
2023/07/30 12:47:35;;;;;;;1.60;1.00;;;21.80;99.90;;;;;;5013649;28;20812;-81
2023/07/30 12:50:01;;;;;;;3.23;0.90;;;21.80;99.90;;;;;;5013848;28;20447;-81